sensor_id;sensor_type;location;lat;lon;timestamp;P1;durP1;ratioP1;P2;durP2;ratioP2
7989;SDS011;4040;42.848;23.034;2024-01-30T00:01:04;3.97;;;3.20;;
7989;SDS011;4040;42.848;23.034;2024-01-30T00:03:32;3.27;;;3.00;;
7989;SDS011;4040;42.848;23.034;2024-01-30T00:09:21;2.10;;;2.00;;
7989;SDS011;4040;42.848;23.034;2024-01-30T00:15:10;3.93;;;2.50;;
7989;SDS011;4040;42.848;23.034;2024-01-30T00:21:00;3.73;;;2.20;;
7989;SDS011;4040;42.848;23.034;2024-01-30T00:26:50;3.03;;;2.83;;
7989;SDS011;4040;42.848;23.034;2024-01-30T00:32:39;3.20;;;1.80;;
7989;SDS011;4040;42.848;23.034;2024-01-30T00:38:30;2.67;;;1.97;;
7989;SDS011;4040;42.848;23.034;2024-01-30T00:44:19;1.53;;;1.43;;
7989;SDS011;4040;42.848;23.034;2024-01-30T00:50:08;2.30;;;1.63;;
7989;SDS011;4040;42.848;23.034;2024-01-30T00:55:59;5.13;;;2.17;;
7989;SDS011;4040;42.848;23.034;2024-01-30T01:01:48;3.07;;;1.93;;
7989;SDS011;4040;42.848;23.034;2024-01-30T01:07:37;3.13;;;2.37;;
7989;SDS011;4040;42.848;23.034;2024-01-30T01:13:28;2.17;;;1.97;;
7989;SDS011;4040;42.848;23.034;2024-01-30T01:19:17;2.10;;;1.70;;
7989;SDS011;4040;42.848;23.034;2024-01-30T01:25:06;3.07;;;2.33;;
7989;SDS011;4040;42.848;23.034;2024-01-30T01:30:57;4.33;;;1.90;;
7989;SDS011;4040;42.848;23.034;2024-01-30T01:36:51;2.00;;;1.90;;
7989;SDS011;4040;42.848;23.034;2024-01-30T01:42:42;3.87;;;1.63;;
7989;SDS011;4040;42.848;23.034;2024-01-30T01:48:32;2.97;;;2.53;;
7989;SDS011;4040;42.848;23.034;2024-01-30T01:54:22;1.67;;;1.50;;
7989;SDS011;4040;42.848;23.034;2024-01-30T02:00:12;1.57;;;1.47;;
7989;SDS011;4040;42.848;23.034;2024-01-30T02:10:05;1.57;;;1.47;;
7989;SDS011;4040;42.848;23.034;2024-01-30T02:15:56;1.83;;;1.40;;
7989;SDS011;4040;42.848;23.034;2024-01-30T02:21:47;3.53;;;1.33;;
7989;SDS011;4040;42.848;23.034;2024-01-30T02:27:36;1.47;;;1.20;;
7989;SDS011;4040;42.848;23.034;2024-01-30T02:33:25;1.20;;;1.20;;
7989;SDS011;4040;42.848;23.034;2024-01-30T02:39:16;1.03;;;0.97;;
7989;SDS011;4040;42.848;23.034;2024-01-30T02:45:05;1.90;;;1.80;;
7989;SDS011;4040;42.848;23.034;2024-01-30T02:50:54;1.40;;;1.30;;
7989;SDS011;4040;42.848;23.034;2024-01-30T02:56:46;1.87;;;1.57;;
7989;SDS011;4040;42.848;23.034;2024-01-30T03:02:35;1.47;;;1.13;;
7989;SDS011;4040;42.848;23.034;2024-01-30T03:12:47;1.67;;;1.57;;
7989;SDS011;4040;42.848;23.034;2024-01-30T03:18:36;1.87;;;1.60;;
7989;SDS011;4040;42.848;23.034;2024-01-30T03:24:25;1.90;;;1.43;;
7989;SDS011;4040;42.848;23.034;2024-01-30T03:30:16;2.43;;;1.67;;
7989;SDS011;4040;42.848;23.034;2024-01-30T03:36:05;3.73;;;1.57;;
7989;SDS011;4040;42.848;23.034;2024-01-30T03:41:54;7.70;;;3.07;;
7989;SDS011;4040;42.848;23.034;2024-01-30T03:47:45;11.40;;;5.03;;
7989;SDS011;4040;42.848;23.034;2024-01-30T03:53:34;3.07;;;2.73;;
7989;SDS011;4040;42.848;23.034;2024-01-30T03:59:23;10.30;;;4.97;;
7989;SDS011;4040;42.848;23.034;2024-01-30T04:05:13;4.17;;;2.50;;
7989;SDS011;4040;42.848;23.034;2024-01-30T04:15:24;2.53;;;2.00;;
7989;SDS011;4040;42.848;23.034;2024-01-30T04:21:15;3.10;;;2.07;;
7989;SDS011;4040;42.848;23.034;2024-01-30T04:27:04;32.13;;;21.83;;
7989;SDS011;4040;42.848;23.034;2024-01-30T04:32:53;21.37;;;14.43;;
7989;SDS011;4040;42.848;23.034;2024-01-30T04:38:44;14.73;;;8.80;;
7989;SDS011;4040;42.848;23.034;2024-01-30T04:44:32;3.40;;;1.93;;
7989;SDS011;4040;42.848;23.034;2024-01-30T04:50:22;5.93;;;2.70;;
7989;SDS011;4040;42.848;23.034;2024-01-30T04:56:14;6.67;;;2.90;;
7989;SDS011;4040;42.848;23.034;2024-01-30T05:02:04;16.03;;;5.70;;
7989;SDS011;4040;42.848;23.034;2024-01-30T05:07:53;6.23;;;4.00;;
7989;SDS011;4040;42.848;23.034;2024-01-30T05:18:06;10.03;;;5.53;;
7989;SDS011;4040;42.848;23.034;2024-01-30T05:23:55;14.20;;;5.83;;
7989;SDS011;4040;42.848;23.034;2024-01-30T05:29:44;18.63;;;7.13;;
7989;SDS011;4040;42.848;23.034;2024-01-30T05:35:35;27.23;;;10.27;;
7989;SDS011;4040;42.848;23.034;2024-01-30T05:41:24;14.27;;;7.73;;
7989;SDS011;4040;42.848;23.034;2024-01-30T05:47:13;8.93;;;3.63;;
7989;SDS011;4040;42.848;23.034;2024-01-30T05:53:03;14.37;;;5.00;;
7989;SDS011;4040;42.848;23.034;2024-01-30T05:58:53;8.97;;;5.90;;
7989;SDS011;4040;42.848;23.034;2024-01-30T06:04:42;15.03;;;7.40;;
7989;SDS011;4040;42.848;23.034;2024-01-30T06:10:32;21.13;;;12.00;;
7989;SDS011;4040;42.848;23.034;2024-01-30T06:20:43;15.67;;;6.83;;
7989;SDS011;4040;42.848;23.034;2024-01-30T06:26:34;9.17;;;5.80;;
7989;SDS011;4040;42.848;23.034;2024-01-30T06:32:24;18.20;;;9.70;;
7989;SDS011;4040;42.848;23.034;2024-01-30T06:38:14;9.47;;;6.37;;
7989;SDS011;4040;42.848;23.034;2024-01-30T06:44:04;19.27;;;10.57;;
7989;SDS011;4040;42.848;23.034;2024-01-30T06:49:55;6.93;;;5.93;;
7989;SDS011;4040;42.848;23.034;2024-01-30T06:55:43;22.83;;;7.83;;
7989;SDS011;4040;42.848;23.034;2024-01-30T07:01:34;31.43;;;17.03;;
7989;SDS011;4040;42.848;23.034;2024-01-30T07:07:23;28.03;;;16.80;;
7989;SDS011;4040;42.848;23.034;2024-01-30T07:13:12;22.53;;;11.80;;
7989;SDS011;4040;42.848;23.034;2024-01-30T07:23:26;10.47;;;7.50;;
7989;SDS011;4040;42.848;23.034;2024-01-30T07:29:17;4.60;;;3.33;;
7989;SDS011;4040;42.848;23.034;2024-01-30T07:35:06;11.87;;;5.23;;
7989;SDS011;4040;42.848;23.034;2024-01-30T07:37:33;7.67;;;5.07;;
7989;SDS011;4040;42.848;23.034;2024-01-30T07:40:03;7.23;;;4.70;;
7989;SDS011;4040;42.848;23.034;2024-01-30T07:45:53;15.20;;;7.70;;
7989;SDS011;4040;42.848;23.034;2024-01-30T07:51:42;7.93;;;4.93;;
7989;SDS011;4040;42.848;23.034;2024-01-30T07:54:10;5.77;;;3.13;;
7989;SDS011;4040;42.848;23.034;2024-01-30T08:00:00;2.60;;;2.07;;
7989;SDS011;4040;42.848;23.034;2024-01-30T08:05:52;3.87;;;1.83;;
7989;SDS011;4040;42.848;23.034;2024-01-30T08:08:20;3.73;;;2.47;;
7989;SDS011;4040;42.848;23.034;2024-01-30T08:14:09;4.37;;;2.60;;
7989;SDS011;4040;42.848;23.034;2024-01-30T08:20:00;2.10;;;2.00;;
7989;SDS011;4040;42.848;23.034;2024-01-30T08:25:51;4.80;;;2.97;;
7989;SDS011;4040;42.848;23.034;2024-01-30T08:31:40;5.10;;;2.30;;
7989;SDS011;4040;42.848;23.034;2024-01-30T08:34:07;7.53;;;3.93;;
7989;SDS011;4040;42.848;23.034;2024-01-30T08:36:36;9.60;;;5.27;;
7989;SDS011;4040;42.848;23.034;2024-01-30T08:42:25;2.67;;;2.07;;
7989;SDS011;4040;42.848;23.034;2024-01-30T08:44:52;2.47;;;1.60;;
7989;SDS011;4040;42.848;23.034;2024-01-30T08:50:43;8.37;;;5.00;;
7989;SDS011;4040;42.848;23.034;2024-01-30T08:56:33;2.78;;;2.13;;
7989;SDS011;4040;42.848;23.034;2024-01-30T09:02:22;2.75;;;1.90;;
7989;SDS011;4040;42.848;23.034;2024-01-30T09:08:11;2.17;;;1.73;;
7989;SDS011;4040;42.848;23.034;2024-01-30T09:14:01;2.20;;;1.53;;
7989;SDS011;4040;42.848;23.034;2024-01-30T09:19:50;2.33;;;1.70;;
7989;SDS011;4040;42.848;23.034;2024-01-30T09:25:39;2.63;;;1.73;;
7989;SDS011;4040;42.848;23.034;2024-01-30T09:31:30;4.60;;;2.10;;
7989;SDS011;4040;42.848;23.034;2024-01-30T09:37:19;3.30;;;2.20;;
7989;SDS011;4040;42.848;23.034;2024-01-30T09:43:08;4.40;;;1.73;;
7989;SDS011;4040;42.848;23.034;2024-01-30T09:49:12;1.97;;;1.47;;
7989;SDS011;4040;42.848;23.034;2024-01-30T09:51:41;2.47;;;1.83;;
7989;SDS011;4040;42.848;23.034;2024-01-30T09:54:08;7.57;;;2.70;;
7989;SDS011;4040;42.848;23.034;2024-01-30T09:59:59;4.07;;;2.17;;
7989;SDS011;4040;42.848;23.034;2024-01-30T10:05:50;10.53;;;4.57;;
7989;SDS011;4040;42.848;23.034;2024-01-30T10:11:40;3.40;;;2.03;;
7989;SDS011;4040;42.848;23.034;2024-01-30T10:17:29;1.90;;;1.37;;
7989;SDS011;4040;42.848;23.034;2024-01-30T10:27:41;2.07;;;1.53;;
7989;SDS011;4040;42.848;23.034;2024-01-30T10:33:30;3.27;;;2.03;;
7989;SDS011;4040;42.848;23.034;2024-01-30T10:39:19;2.37;;;1.80;;
7989;SDS011;4040;42.848;23.034;2024-01-30T10:45:12;4.10;;;2.10;;
7989;SDS011;4040;42.848;23.034;2024-01-30T10:51:02;2.70;;;1.97;;
7989;SDS011;4040;42.848;23.034;2024-01-30T10:56:53;5.47;;;3.70;;
7989;SDS011;4040;42.848;23.034;2024-01-30T11:02:43;4.63;;;2.87;;
7989;SDS011;4040;42.848;23.034;2024-01-30T11:08:34;2.35;;;1.67;;
7989;SDS011;4040;42.848;23.034;2024-01-30T11:14:23;2.27;;;1.73;;
7989;SDS011;4040;42.848;23.034;2024-01-30T11:20:15;2.25;;;1.63;;
7989;SDS011;4040;42.848;23.034;2024-01-30T11:30:28;5.90;;;2.65;;
7989;SDS011;4040;42.848;23.034;2024-01-30T11:36:18;2.40;;;1.70;;
7989;SDS011;4040;42.848;23.034;2024-01-30T11:38:51;4.13;;;2.03;;
7989;SDS011;4040;42.848;23.034;2024-01-30T11:44:40;2.03;;;1.80;;
7989;SDS011;4040;42.848;23.034;2024-01-30T11:47:07;2.67;;;1.90;;
7989;SDS011;4040;42.848;23.034;2024-01-30T11:49:36;3.00;;;1.87;;
7989;SDS011;4040;42.848;23.034;2024-01-30T11:55:27;3.30;;;2.47;;
7989;SDS011;4040;42.848;23.034;2024-01-30T11:57:55;6.37;;;2.00;;
7989;SDS011;4040;42.848;23.034;2024-01-30T12:03:49;24.70;;;1.93;;
7989;SDS011;4040;42.848;23.034;2024-01-30T12:09:37;1.50;;;1.30;;
7989;SDS011;4040;42.848;23.034;2024-01-30T12:12:06;1.50;;;1.40;;
7989;SDS011;4040;42.848;23.034;2024-01-30T12:14:37;3.57;;;2.10;;
7989;SDS011;4040;42.848;23.034;2024-01-30T12:20:27;2.80;;;2.23;;
7989;SDS011;4040;42.848;23.034;2024-01-30T12:22:54;1.53;;;1.43;;
7989;SDS011;4040;42.848;23.034;2024-01-30T12:33:07;2.43;;;1.37;;
7989;SDS011;4040;42.848;23.034;2024-01-30T12:35:35;2.57;;;1.93;;
7989;SDS011;4040;42.848;23.034;2024-01-30T12:38:02;3.10;;;1.87;;
7989;SDS011;4040;42.848;23.034;2024-01-30T12:43:51;2.87;;;2.30;;
7989;SDS011;4040;42.848;23.034;2024-01-30T12:49:42;2.57;;;2.27;;
7989;SDS011;4040;42.848;23.034;2024-01-30T12:52:10;3.27;;;2.70;;
7989;SDS011;4040;42.848;23.034;2024-01-30T12:54:37;6.33;;;3.97;;
7989;SDS011;4040;42.848;23.034;2024-01-30T13:00:26;10.93;;;5.83;;
7989;SDS011;4040;42.848;23.034;2024-01-30T13:02:54;4.93;;;3.27;;
7989;SDS011;4040;42.848;23.034;2024-01-30T13:08:44;6.10;;;2.93;;
7989;SDS011;4040;42.848;23.034;2024-01-30T13:11:12;2.90;;;1.90;;
7989;SDS011;4040;42.848;23.034;2024-01-30T13:17:00;8.63;;;3.77;;
7989;SDS011;4040;42.848;23.034;2024-01-30T13:19:28;1.80;;;1.70;;
7989;SDS011;4040;42.848;23.034;2024-01-30T13:25:18;3.87;;;2.17;;
7989;SDS011;4040;42.848;23.034;2024-01-30T13:35:29;7.03;;;2.67;;
7989;SDS011;4040;42.848;23.034;2024-01-30T13:41:20;2.10;;;1.87;;
7989;SDS011;4040;42.848;23.034;2024-01-30T13:47:09;6.17;;;3.87;;
7989;SDS011;4040;42.848;23.034;2024-01-30T13:52:59;4.73;;;4.17;;
7989;SDS011;4040;42.848;23.034;2024-01-30T13:55:26;2.83;;;1.77;;
7989;SDS011;4040;42.848;23.034;2024-01-30T14:01:17;3.37;;;2.23;;
7989;SDS011;4040;42.848;23.034;2024-01-30T14:07:05;2.93;;;2.13;;
7989;SDS011;4040;42.848;23.034;2024-01-30T14:09:33;2.80;;;1.73;;
7989;SDS011;4040;42.848;23.034;2024-01-30T14:15:22;1.63;;;1.43;;
7989;SDS011;4040;42.848;23.034;2024-01-30T14:21:13;3.57;;;2.07;;
7989;SDS011;4040;42.848;23.034;2024-01-30T14:27:01;24.03;;;10.10;;
7989;SDS011;4040;42.848;23.034;2024-01-30T14:36:34;12.90;;;4.80;;
7989;SDS011;4040;42.848;23.034;2024-01-30T14:42:23;2.37;;;1.80;;
7989;SDS011;4040;42.848;23.034;2024-01-30T14:48:12;3.53;;;2.07;;
7989;SDS011;4040;42.848;23.034;2024-01-30T14:54:02;4.20;;;2.10;;
7989;SDS011;4040;42.848;23.034;2024-01-30T14:59:51;2.10;;;1.50;;
7989;SDS011;4040;42.848;23.034;2024-01-30T15:05:41;7.50;;;2.20;;
7989;SDS011;4040;42.848;23.034;2024-01-30T15:11:31;5.30;;;2.70;;
7989;SDS011;4040;42.848;23.034;2024-01-30T15:17:22;2.90;;;2.57;;
7989;SDS011;4040;42.848;23.034;2024-01-30T15:23:11;4.77;;;2.10;;
7989;SDS011;4040;42.848;23.034;2024-01-30T15:29:02;1.63;;;1.53;;
7989;SDS011;4040;42.848;23.034;2024-01-30T15:35:02;3.73;;;1.90;;
7989;SDS011;4040;42.848;23.034;2024-01-30T15:40:52;6.10;;;2.67;;
7989;SDS011;4040;42.848;23.034;2024-01-30T15:43:20;3.47;;;2.90;;
7989;SDS011;4040;42.848;23.034;2024-01-30T15:49:10;10.87;;;5.87;;
7989;SDS011;4040;42.848;23.034;2024-01-30T15:54:59;3.03;;;2.43;;
7989;SDS011;4040;42.848;23.034;2024-01-30T15:57:27;4.70;;;3.17;;
7989;SDS011;4040;42.848;23.034;2024-01-30T16:03:16;12.87;;;4.90;;
7989;SDS011;4040;42.848;23.034;2024-01-30T16:09:06;50.10;;;21.57;;
7989;SDS011;4040;42.848;23.034;2024-01-30T16:14:56;25.33;;;10.67;;
7989;SDS011;4040;42.848;23.034;2024-01-30T16:20:45;35.87;;;15.80;;
7989;SDS011;4040;42.848;23.034;2024-01-30T16:23:12;86.20;;;29.27;;
7989;SDS011;4040;42.848;23.034;2024-01-30T16:29:02;137.03;;;43.03;;
7989;SDS011;4040;42.848;23.034;2024-01-30T16:34:51;19.13;;;7.67;;
7989;SDS011;4040;42.848;23.034;2024-01-30T16:37:18;13.27;;;6.03;;
7989;SDS011;4040;42.848;23.034;2024-01-30T16:43:08;132.23;;;41.73;;
7989;SDS011;4040;42.848;23.034;2024-01-30T16:45:36;83.60;;;28.50;;
7989;SDS011;4040;42.848;23.034;2024-01-30T16:51:25;65.33;;;22.47;;
7989;SDS011;4040;42.848;23.034;2024-01-30T16:57:14;81.30;;;25.70;;
7989;SDS011;4040;42.848;23.034;2024-01-30T17:03:05;34.63;;;13.63;;
7989;SDS011;4040;42.848;23.034;2024-01-30T17:05:32;21.37;;;9.60;;
7989;SDS011;4040;42.848;23.034;2024-01-30T17:11:21;12.57;;;7.00;;
7989;SDS011;4040;42.848;23.034;2024-01-30T17:13:49;9.97;;;5.50;;
7989;SDS011;4040;42.848;23.034;2024-01-30T17:16:16;14.07;;;7.23;;
7989;SDS011;4040;42.848;23.034;2024-01-30T17:22:07;11.23;;;7.00;;
7989;SDS011;4040;42.848;23.034;2024-01-30T17:24:35;21.13;;;9.57;;
7989;SDS011;4040;42.848;23.034;2024-01-30T17:30:24;27.57;;;11.33;;
7989;SDS011;4040;42.848;23.034;2024-01-30T17:36:15;209.83;;;64.00;;
7989;SDS011;4040;42.848;23.034;2024-01-30T17:38:44;74.93;;;26.77;;
7989;SDS011;4040;42.848;23.034;2024-01-30T17:44:34;86.83;;;27.60;;
7989;SDS011;4040;42.848;23.034;2024-01-30T17:50:26;49.87;;;18.17;;
7989;SDS011;4040;42.848;23.034;2024-01-30T17:56:16;25.27;;;13.73;;
7989;SDS011;4040;42.848;23.034;2024-01-30T18:02:06;84.77;;;27.73;;
7989;SDS011;4040;42.848;23.034;2024-01-30T18:07:55;16.00;;;8.40;;
7989;SDS011;4040;42.848;23.034;2024-01-30T18:10:22;17.10;;;9.93;;
7989;SDS011;4040;42.848;23.034;2024-01-30T18:16:12;23.57;;;10.27;;
7989;SDS011;4040;42.848;23.034;2024-01-30T18:22:01;18.37;;;7.87;;
7989;SDS011;4040;42.848;23.034;2024-01-30T18:27:51;24.73;;;10.13;;
7989;SDS011;4040;42.848;23.034;2024-01-30T18:30:18;12.50;;;6.37;;
7989;SDS011;4040;42.848;23.034;2024-01-30T18:36:09;41.87;;;18.17;;
7989;SDS011;4040;42.848;23.034;2024-01-30T18:41:57;9.00;;;5.97;;
7989;SDS011;4040;42.848;23.034;2024-01-30T18:44:24;6.73;;;4.43;;
7989;SDS011;4040;42.848;23.034;2024-01-30T18:50:13;22.80;;;9.00;;
7989;SDS011;4040;42.848;23.034;2024-01-30T18:52:42;11.60;;;7.07;;
7989;SDS011;4040;42.848;23.034;2024-01-30T18:58:32;17.27;;;11.23;;
7989;SDS011;4040;42.848;23.034;2024-01-30T19:04:21;32.20;;;17.77;;
7989;SDS011;4040;42.848;23.034;2024-01-30T19:10:11;30.90;;;15.40;;
7989;SDS011;4040;42.848;23.034;2024-01-30T19:16:01;29.03;;;11.07;;
7989;SDS011;4040;42.848;23.034;2024-01-30T19:21:50;38.60;;;18.00;;
7989;SDS011;4040;42.848;23.034;2024-01-30T19:27:41;30.63;;;12.97;;
7989;SDS011;4040;42.848;23.034;2024-01-30T19:33:30;38.57;;;13.70;;
7989;SDS011;4040;42.848;23.034;2024-01-30T19:43:22;50.73;;;22.63;;
7989;SDS011;4040;42.848;23.034;2024-01-30T19:49:11;20.63;;;10.07;;
7989;SDS011;4040;42.848;23.034;2024-01-30T19:55:01;25.77;;;14.43;;
7989;SDS011;4040;42.848;23.034;2024-01-30T20:00:52;19.70;;;9.93;;
7989;SDS011;4040;42.848;23.034;2024-01-30T20:06:41;52.30;;;20.43;;
7989;SDS011;4040;42.848;23.034;2024-01-30T20:12:30;40.33;;;17.20;;
7989;SDS011;4040;42.848;23.034;2024-01-30T20:18:21;28.17;;;11.77;;
7989;SDS011;4040;42.848;23.034;2024-01-30T20:24:10;22.67;;;8.07;;
7989;SDS011;4040;42.848;23.034;2024-01-30T20:30:12;17.83;;;7.57;;
7989;SDS011;4040;42.848;23.034;2024-01-30T20:36:07;13.87;;;6.93;;
7989;SDS011;4040;42.848;23.034;2024-01-30T20:38:34;10.63;;;8.07;;
7989;SDS011;4040;42.848;23.034;2024-01-30T20:44:23;8.30;;;6.30;;
7989;SDS011;4040;42.848;23.034;2024-01-30T20:50:12;8.17;;;6.60;;
7989;SDS011;4040;42.848;23.034;2024-01-30T20:56:03;12.20;;;6.47;;
7989;SDS011;4040;42.848;23.034;2024-01-30T21:01:52;6.23;;;5.50;;
7989;SDS011;4040;42.848;23.034;2024-01-30T21:07:41;10.47;;;5.87;;
7989;SDS011;4040;42.848;23.034;2024-01-30T21:13:32;19.27;;;7.07;;
7989;SDS011;4040;42.848;23.034;2024-01-30T21:19:21;9.97;;;7.73;;
7989;SDS011;4040;42.848;23.034;2024-01-30T21:25:10;9.27;;;7.40;;
7989;SDS011;4040;42.848;23.034;2024-01-30T21:31:02;17.97;;;10.63;;
7989;SDS011;4040;42.848;23.034;2024-01-30T21:36:55;8.43;;;4.77;;
7989;SDS011;4040;42.848;23.034;2024-01-30T21:42:44;12.67;;;5.63;;
7989;SDS011;4040;42.848;23.034;2024-01-30T21:48:35;7.30;;;5.90;;
7989;SDS011;4040;42.848;23.034;2024-01-30T21:54:24;20.17;;;6.47;;
7989;SDS011;4040;42.848;23.034;2024-01-30T22:00:14;9.57;;;5.37;;
7989;SDS011;4040;42.848;23.034;2024-01-30T22:06:05;14.17;;;7.53;;
7989;SDS011;4040;42.848;23.034;2024-01-30T22:11:55;7.90;;;4.80;;
7989;SDS011;4040;42.848;23.034;2024-01-30T22:17:44;14.47;;;4.17;;
7989;SDS011;4040;42.848;23.034;2024-01-30T22:23:36;10.47;;;5.37;;
7989;SDS011;4040;42.848;23.034;2024-01-30T22:29:26;4.30;;;3.50;;
7989;SDS011;4040;42.848;23.034;2024-01-30T22:35:15;3.47;;;3.10;;
7989;SDS011;4040;42.848;23.034;2024-01-30T22:41:08;2.87;;;2.30;;
7989;SDS011;4040;42.848;23.034;2024-01-30T22:46:57;9.93;;;4.70;;
7989;SDS011;4040;42.848;23.034;2024-01-30T22:52:46;3.17;;;2.90;;
7989;SDS011;4040;42.848;23.034;2024-01-30T22:58:38;7.77;;;3.67;;
7989;SDS011;4040;42.848;23.034;2024-01-30T23:08:28;3.60;;;2.87;;
7989;SDS011;4040;42.848;23.034;2024-01-30T23:14:18;7.87;;;4.63;;
7989;SDS011;4040;42.848;23.034;2024-01-30T23:20:07;5.53;;;4.00;;
7989;SDS011;4040;42.848;23.034;2024-01-30T23:26:00;2.87;;;2.67;;
7989;SDS011;4040;42.848;23.034;2024-01-30T23:31:50;5.77;;;4.93;;
7989;SDS011;4040;42.848;23.034;2024-01-30T23:37:39;14.03;;;7.07;;
7989;SDS011;4040;42.848;23.034;2024-01-30T23:43:30;4.93;;;2.93;;
7989;SDS011;4040;42.848;23.034;2024-01-30T23:49:20;2.33;;;2.23;;
7989;SDS011;4040;42.848;23.034;2024-01-30T23:55:10;6.50;;;2.43;;
